Time;durP1;ratioP1;P1;durP2;ratioP2;P2;SDS_P1;SDS_P2;PMS_P1;PMS_P2;Temp;Humidity;BMP_temperature;BMP_pressure;BME280_temperature;BME280_humidity;BME280_pressure;Samples;Min_cycle;Max_cycle;Signal;HPM_P1;HPM_P2
2023/01/02 00:00:47;;;;;;;16.23;6.90;;;;;;;-145.18;100.00;46670.16;6182699;23;20013;-71
2023/01/02 00:03:13;;;;;;;11.50;7.00;;;;;;;-145.18;100.00;46664.31;6182576;23;20427;-72
2023/01/02 00:05:38;;;;;;;18.93;6.27;;;;;;;-145.18;100.00;46677.97;6182692;23;20066;-72
2023/01/02 00:08:04;;;;;;;17.23;7.87;;;;;;;-145.18;100.00;46676.03;6183328;23;20005;-72
2023/01/02 00:10:29;;;;;;;21.27;6.23;;;;;;;-145.18;100.00;46670.16;6183095;23;20009;-72
2023/01/02 00:12:55;;;;;;;15.03;6.80;;;;;;;-145.18;100.00;46677.97;6182562;23;20044;-72
2023/01/02 00:15:20;;;;;;;14.70;6.17;;;;;;;-145.18;100.00;46674.06;6156432;23;20020;-72
2023/01/02 00:17:45;;;;;;;16.30;6.03;;;;;;;-145.18;100.00;46670.16;6182608;23;20454;-72
2023/01/02 00:20:11;;;;;;;15.43;6.40;;;;;;;-145.18;100.00;46672.13;6183114;23;20084;-72
2023/01/02 00:22:36;;;;;;;15.90;6.30;;;;;;;-145.18;100.00;46664.31;6181895;23;20076;-72
2023/01/02 00:25:02;;;;;;;16.03;5.87;;;;;;;-145.18;100.00;46674.06;6183217;23;20328;-72
2023/01/02 00:27:27;;;;;;;19.93;7.90;;;;;;;-145.18;100.00;46674.06;6182770;23;20013;-71
2023/01/02 00:29:52;;;;;;;12.80;6.47;;;;;;;-145.18;100.00;46672.13;6182798;23;20020;-72
2023/01/02 00:32:18;;;;;;;15.40;5.97;;;;;;;-145.18;100.00;46670.16;6182525;23;20073;-72
2023/01/02 00:34:43;;;;;;;14.70;5.77;;;;;;;-145.18;100.00;46672.13;6182394;23;20012;-72
2023/01/02 00:37:08;;;;;;;15.27;6.53;;;;;;;-145.18;100.00;46670.16;6182778;23;20092;-71
2023/01/02 00:39:34;;;;;;;14.63;6.40;;;;;;;-145.18;100.00;46670.16;6182577;23;20009;-72
2023/01/02 00:41:59;;;;;;;15.33;6.20;;;;;;;-145.18;100.00;46676.03;6182539;23;20017;-72
2023/01/02 00:44:24;;;;;;;13.20;5.80;;;;;;;-145.18;100.00;46674.06;6156368;23;20032;-72
2023/01/02 00:46:50;;;;;;;12.53;6.00;;;;;;;-145.18;100.00;46674.06;6182346;23;20017;-72
2023/01/02 00:49:15;;;;;;;18.07;6.10;;;;;;;-145.18;100.00;46677.97;6182578;23;20121;-72
2023/01/02 00:51:41;;;;;;;18.70;7.93;;;;;;;-145.18;100.00;46672.13;6182129;23;20009;-72
2023/01/02 00:54:06;;;;;;;14.53;6.57;;;;;;;-145.18;100.00;46672.13;6182849;23;20016;-72
2023/01/02 00:56:32;;;;;;;14.77;5.70;;;;;;;-145.18;100.00;46679.94;6182186;23;20032;-72
2023/01/02 00:58:57;;;;;;;14.97;5.20;;;;;;;-145.18;100.00;46676.03;6182418;23;20012;-72
2023/01/02 01:01:22;;;;;;;12.10;5.80;;;;;;;-145.18;100.00;46687.75;6182700;23;20016;-72
2023/01/02 01:03:48;;;;;;;13.60;5.80;;;;;;;-145.18;100.00;46677.97;6181897;23;20107;-72
2023/01/02 01:06:13;;;;;;;13.97;6.20;;;;;;;-145.18;100.00;46676.03;6182454;23;20020;-72
2023/01/02 01:08:39;;;;;;;15.20;5.80;;;;;;;-145.18;100.00;46676.03;6182601;23;20012;-72
2023/01/02 01:11:13;;;;;;;18.40;5.93;;;;;;;-145.18;100.00;46676.03;6181940;23;20028;-72
2023/01/02 01:13:39;;;;;;;13.67;5.57;;;;;;;-145.18;100.00;46676.03;6182207;23;20047;-72
2023/01/02 01:16:12;;;;;;;13.00;5.80;;;;;;;-145.18;100.00;46677.97;6182259;23;20012;-72
2023/01/02 01:18:38;;;;;;;10.13;5.70;;;;;;;-145.18;100.00;46677.97;6182384;23;20005;-72
2023/01/02 01:21:12;;;;;;;11.53;5.40;;;;;;;-145.18;100.00;46683.84;6182303;23;20085;-72
2023/01/02 01:23:38;;;;;;;10.23;5.63;;;;;;;-145.18;100.00;46670.16;6182364;23;20001;-72
2023/01/02 01:26:09;;;;;;;11.73;5.53;;;;;;;-145.18;100.00;46679.94;6181860;23;20009;-72
2023/01/02 01:28:35;;;;;;;11.83;6.07;;;;;;;-145.18;100.00;46677.97;6182195;23;20013;-72
2023/01/02 01:31:11;;;;;;;13.17;5.73;;;;;;;-145.18;100.00;46672.13;6181982;23;20324;-72
2023/01/02 01:33:38;;;;;;;21.63;6.03;;;;;;;-145.18;100.00;46674.06;6182369;23;20016;-72
2023/01/02 01:36:06;;;;;;;16.90;5.40;;;;;;;-145.18;100.00;46674.06;6182015;23;20005;-72
2023/01/02 01:38:32;;;;;;;12.47;5.47;;;;;;;-145.18;100.00;46679.94;6182460;23;20079;-72
2023/01/02 01:40:58;;;;;;;15.10;5.77;;;;;;;-145.18;100.00;46672.13;6182014;23;20032;-72
2023/01/02 01:43:42;;;;;;;14.83;5.63;;;;;;;-145.18;100.00;46672.13;6182183;23;20009;-72
2023/01/02 01:46:30;;;;;;;13.27;5.40;;;;;;;-145.18;100.00;46676.03;6182078;23;20024;-72
2023/01/02 01:49:01;;;;;;;16.47;6.10;;;;;;;-145.18;100.00;46674.06;6162331;23;20005;-72
2023/01/02 01:51:29;;;;;;;15.07;5.13;;;;;;;-145.18;100.00;46679.94;6182051;23;20080;-72
2023/01/02 01:54:04;;;;;;;15.83;5.83;;;;;;;-145.18;100.00;46681.88;6181986;23;20005;-72
2023/01/02 01:56:34;;;;;;;24.80;6.63;;;;;;;-145.18;100.00;46677.97;6181844;23;20001;-72
2023/01/02 01:59:00;;;;;;;16.57;5.40;;;;;;;-145.18;100.00;46674.06;6182645;23;20029;-72
2023/01/02 02:01:25;;;;;;;14.07;5.23;;;;;;;-145.18;100.00;46679.94;6182108;23;20388;-72
2023/01/02 02:03:51;;;;;;;11.13;5.10;;;;;;;-145.18;100.00;46672.13;6181915;23;20025;-72
2023/01/02 02:06:18;;;;;;;18.17;6.67;;;;;;;-145.18;100.00;46674.06;6181585;23;20324;-72
2023/01/02 02:08:56;;;;;;;15.00;5.57;;;;;;;-145.18;100.00;46677.97;6181985;23;20367;-72
2023/01/02 02:11:22;;;;;;;10.13;4.67;;;;;;;-145.18;100.00;46674.06;6181927;23;20308;-72
2023/01/02 02:13:48;;;;;;;14.83;5.67;;;;;;;-145.18;100.00;46677.97;6182137;23;20040;-72
2023/01/02 02:16:16;;;;;;;16.43;5.60;;;;;;;-145.18;100.00;46676.03;6181701;23;20594;-72
2023/01/02 02:19:06;;;;;;;15.60;6.23;;;;;;;-145.18;100.00;46676.03;6181824;23;20451;-72
2023/01/02 02:22:05;;;;;;;13.83;4.70;;;;;;;-145.18;100.00;46683.84;6181968;23;20005;-72
2023/01/02 02:25:03;;;;;;;10.87;4.77;;;;;;;-145.18;100.00;46672.13;6183790;23;20009;-72
2023/01/02 02:27:48;;;;;;;18.57;6.47;;;;;;;-145.18;100.00;46676.03;6183884;23;20009;-72
2023/01/02 02:30:17;;;;;;;17.05;5.15;;;;;;;-145.18;100.00;46672.13;6184109;23;20001;-72
2023/01/02 02:33:15;;;;;;;11.70;3.70;;;;;;;-145.18;100.00;46670.16;6183553;23;20016;-72
2023/01/02 02:35:48;;;;;;;12.73;5.07;;;;;;;-145.18;100.00;46677.97;6183533;23;20489;-72
2023/01/02 02:38:35;;;;;;;12.37;4.67;;;;;;;-145.18;100.00;46676.03;6183904;23;20013;-72
2023/01/02 02:41:27;;;;;;;10.97;3.87;;;;;;;-145.18;100.00;46685.78;6184141;23;20081;-72
2023/01/02 02:44:22;;;;;;;15.20;5.00;;;;;;;-145.18;100.00;46676.03;6183739;23;20056;-72
2023/01/02 02:46:55;;;;;;;16.90;4.17;;;;;;;-145.18;100.00;46672.13;6183479;23;20498;-72
2023/01/02 02:49:33;;;;;;;11.33;4.30;;;;;;;-145.18;100.00;46676.03;6183676;23;20032;-72
2023/01/02 02:52:10;;;;;;;13.70;4.47;;;;;;;-145.18;100.00;46683.84;6183844;23;20008;-72
2023/01/02 02:54:41;;;;;;;13.30;4.30;;;;;;;-145.18;100.00;46674.06;6183841;23;20033;-72
2023/01/02 02:57:08;;;;;;;12.40;3.90;;;;;;;-145.18;100.00;46681.88;6183495;23;20017;-72
2023/01/02 02:59:36;;;;;;;8.43;3.73;;;;;;;-145.18;100.00;46679.94;6183635;23;20033;-72
2023/01/02 03:02:03;;;;;;;17.20;4.03;;;;;;;-145.18;100.00;46679.94;6154047;23;20075;-72
2023/01/02 03:04:28;;;;;;;13.43;3.37;;;;;;;-145.18;100.00;46683.84;6181300;23;20071;-72
2023/01/02 03:07:34;;;;;;;13.10;4.77;;;;;;;-145.18;100.00;46677.97;6182760;23;20017;-72
2023/01/02 03:10:18;;;;;;;17.27;5.30;;;;;;;-145.18;100.00;46672.13;6183224;23;20084;-72
2023/01/02 03:13:21;;;;;;;9.43;3.30;;;;;;;-145.18;100.00;46679.94;6183394;23;20037;-72
2023/01/02 03:16:02;;;;;;;14.00;3.93;;;;;;;-145.18;100.00;46681.88;6183923;23;20380;-72
2023/01/02 03:18:35;;;;;;;13.87;4.17;;;;;;;-145.18;100.00;46676.03;6183749;23;20016;-72
2023/01/02 03:21:11;;;;;;;13.03;4.03;;;;;;;-145.18;100.00;46679.94;6182952;23;20067;-72
2023/01/02 03:23:45;;;;;;;9.83;3.27;;;;;;;-145.18;100.00;46685.78;6183649;23;20005;-73
2023/01/02 03:26:14;;;;;;;7.87;3.33;;;;;;;-145.18;100.00;46674.06;6183556;23;20012;-72
2023/01/02 03:28:43;;;;;;;18.47;4.07;;;;;;;-145.18;100.00;46677.97;6184032;23;20088;-73
2023/01/02 03:31:13;;;;;;;11.63;4.23;;;;;;;-145.18;100.00;46679.94;6181267;23;20079;-72
2023/01/02 03:33:45;;;;;;;15.00;4.20;;;;;;;-145.18;100.00;46670.16;6183282;23;20005;-72
2023/01/02 03:36:18;;;;;;;11.33;3.83;;;;;;;-145.18;100.00;46677.97;6183664;23;20000;-72
2023/01/02 03:38:51;;;;;;;10.03;3.60;;;;;;;-145.18;100.00;46679.94;6183048;23;20051;-72
2023/01/02 03:41:24;;;;;;;11.53;4.43;;;;;;;-145.18;100.00;46681.88;6183212;23;20386;-72
2023/01/02 03:43:52;;;;;;;9.87;3.80;;;;;;;-145.18;100.00;46681.88;6181825;23;20705;-72
2023/01/02 03:46:45;;;;;;;12.50;3.50;;;;;;;-145.18;100.00;46679.94;6183776;23;20089;-72
2023/01/02 03:49:19;;;;;;;12.67;4.50;;;;;;;-145.18;100.00;46685.78;6167091;23;20001;-72
2023/01/02 03:51:45;;;;;;;11.07;3.90;;;;;;;-145.18;100.00;46676.03;6183362;23;20013;-73
2023/01/02 03:54:10;;;;;;;11.37;3.37;;;;;;;-145.18;100.00;46677.97;6183044;23;20041;-72
2023/01/02 03:56:51;;;;;;;10.67;3.60;;;;;;;-145.18;100.00;46681.88;6183244;23;20341;-73
2023/01/02 03:59:50;;;;;;;11.50;4.40;;;;;;;-145.18;100.00;46683.84;6183056;23;20124;-73
2023/01/02 04:02:24;;;;;;;14.73;4.10;;;;;;;-145.18;100.00;46676.03;6182225;23;20016;-72
2023/01/02 04:04:57;;;;;;;10.23;4.10;;;;;;;-145.18;100.00;46681.88;6183371;23;20001;-72
2023/01/02 04:07:33;;;;;;;12.93;4.40;;;;;;;-145.18;100.00;46672.13;6183136;23;20004;-72
2023/01/02 04:09:59;;;;;;;;;;;;;;;-145.18;100.00;46672.13;6183675;23;20142;-72
2023/01/02 04:12:28;;;;;;;8.75;4.00;;;;;;;-145.18;100.00;46679.94;6182664;23;20249;-72
2023/01/02 04:15:05;;;;;;;9.63;3.60;;;;;;;-145.18;100.00;46676.03;6183169;23;20012;-72
2023/01/02 04:17:37;;;;;;;9.73;4.07;;;;;;;-145.18;100.00;46677.97;6182852;23;19997;-72
2023/01/02 04:20:08;;;;;;;11.20;4.00;;;;;;;-145.18;100.00;46676.03;6183076;23;20080;-72
2023/01/02 04:22:44;;;;;;;10.97;3.80;;;;;;;-145.18;100.00;46677.97;6182655;23;20040;-72
2023/01/02 04:25:13;;;;;;;10.20;3.60;;;;;;;-145.18;100.00;46668.22;6183194;23;20012;-72
2023/01/02 04:28:05;;;;;;;13.07;4.37;;;;;;;-145.18;100.00;46674.06;6182915;23;20013;-72
2023/01/02 04:30:35;;;;;;;12.63;3.93;;;;;;;-145.18;100.00;46677.97;6183080;23;20048;-72
2023/01/02 04:33:05;;;;;;;18.37;4.00;;;;;;;-145.18;100.00;46672.13;6182284;23;20013;-72
2023/01/02 04:35:33;;;;;;;9.57;4.30;;;;;;;-145.18;100.00;46674.06;6183796;23;20063;-72
2023/01/02 04:38:07;;;;;;;12.03;4.80;;;;;;;-145.18;100.00;46683.84;6180882;23;20008;-72
2023/01/02 04:40:36;;;;;;;10.77;4.07;;;;;;;-145.18;100.00;46668.22;6182894;23;20338;-72
2023/01/02 04:43:05;;;;;;;12.03;4.10;;;;;;;-145.18;100.00;46674.06;6182682;23;20140;-72
2023/01/02 04:45:31;;;;;;;10.67;4.30;;;;;;;-145.18;100.00;46674.06;6182463;23;20016;-72
2023/01/02 04:47:56;;;;;;;9.53;3.70;;;;;;;-145.18;100.00;46676.03;6182293;23;20006;-72
2023/01/02 04:50:22;;;;;;;12.97;4.47;;;;;;;-145.18;100.00;46676.03;6183037;23;20454;-72
2023/01/02 04:52:47;;;;;;;10.90;4.30;;;;;;;-145.18;100.00;46672.13;6182561;23;20405;-72
2023/01/02 04:55:12;;;;;;;8.93;4.27;;;;;;;-145.18;100.00;46674.06;6182739;23;20020;-72
2023/01/02 04:57:38;;;;;;;10.93;3.70;;;;;;;-145.18;100.00;46674.06;6182509;23;20029;-72
2023/01/02 05:00:05;;;;;;;12.77;4.37;;;;;;;-145.18;100.00;46674.06;6182483;23;20005;-72
2023/01/02 05:02:35;;;;;;;7.00;4.13;;;;;;;-145.18;100.00;46672.13;6181889;23;20044;-72
2023/01/02 05:05:01;;;;;;;10.00;3.93;;;;;;;-145.18;100.00;46677.97;6182652;23;20715;-72
2023/01/02 05:07:26;;;;;;;9.60;3.40;;;;;;;-145.18;100.00;46674.06;6182441;23;20012;-72
2023/01/02 05:09:52;;;;;;;9.07;3.97;;;;;;;-145.18;100.00;46681.88;6182615;23;20058;-72
2023/01/02 05:12:17;;;;;;;9.27;4.00;;;;;;;-145.18;100.00;46683.84;6182474;23;20458;-72
2023/01/02 05:14:42;;;;;;;12.03;4.10;;;;;;;-145.18;100.00;46691.66;6182430;23;20438;-72
2023/01/02 05:17:08;;;;;;;7.63;3.73;;;;;;;-145.18;100.00;46679.94;6182399;23;20048;-73
2023/01/02 05:19:33;;;;;;;9.83;3.33;;;;;;;-145.18;100.00;46679.94;6182473;23;20005;-72
2023/01/02 05:24:42;;;;;;;8.47;4.07;;;;;;;-145.18;100.00;46672.13;6182552;23;20396;-73
2023/01/02 05:27:08;;;;;;;13.97;3.97;;;;;;;-145.18;100.00;46679.94;6180471;23;20052;-73
2023/01/02 05:29:33;;;;;;;8.03;4.13;;;;;;;-145.18;100.00;46677.97;6182441;23;20013;-72
2023/01/02 05:31:58;;;;;;;6.60;3.47;;;;;;;-145.18;100.00;46683.84;6180733;23;20009;-72
2023/01/02 05:34:24;;;;;;;5.83;3.20;;;;;;;-145.18;100.00;46677.97;6182494;23;20063;-73
2023/01/02 05:36:49;;;;;;;8.70;2.77;;;;;;;-145.18;100.00;46679.94;6181235;23;20013;-72
2023/01/02 05:39:14;;;;;;;4.83;2.90;;;;;;;-145.18;100.00;46685.78;6180846;23;20040;-72
2023/01/02 05:41:40;;;;;;;5.83;3.00;;;;;;;-145.18;100.00;46685.78;6181357;23;20036;-72
2023/01/02 05:44:07;;;;;;;3.23;1.93;;;;;;;-145.18;100.00;46677.97;6182211;23;20148;-72
2023/01/02 05:46:33;;;;;;;4.33;2.20;;;;;;;-145.18;100.00;46676.03;6181111;23;20005;-72
2023/01/02 05:48:59;;;;;;;2.77;1.30;;;;;;;-145.18;100.00;46676.03;6181980;23;20220;-72
2023/01/02 05:51:24;;;;;;;1.83;0.70;;;;;;;-145.18;100.00;46672.13;6182493;23;20009;-72
2023/01/02 05:53:53;;;;;;;1.27;0.40;;;;;;;-145.18;100.00;46677.97;6181844;23;20005;-72
2023/01/02 05:56:20;;;;;;;1.57;0.50;;;;;;;-145.18;100.00;46676.03;6181188;23;20001;-71
2023/01/02 05:58:47;;;;;;;2.57;0.70;;;;;;;-145.18;100.00;46672.13;6179155;23;20326;-72
2023/01/02 06:01:21;;;;;;;2.10;0.90;;;;;;;-145.18;100.00;46676.03;6180052;23;20231;-72
2023/01/02 06:03:51;;;;;;;1.40;1.20;;;;;;;-145.18;100.00;46672.13;6181211;23;20258;-72
2023/01/02 06:06:19;;;;;;;2.83;2.30;;;;;;;-145.18;100.00;46674.06;6181067;23;20677;-72
2023/01/02 06:08:45;;;;;;;2.67;1.93;;;;;;;-145.18;100.00;46676.03;6180337;23;20724;-72
2023/01/02 06:11:10;;;;;;;7.27;3.43;;;;;;;-145.18;100.00;46672.13;6181745;23;20323;-72
2023/01/02 06:13:37;;;;;;;5.53;4.33;;;;;;;-145.18;100.00;46674.06;6180161;23;20064;-72
2023/01/02 06:16:04;;;;;;;7.87;5.30;;;;;;;-145.18;100.00;46674.06;6182173;23;20426;-71
2023/01/02 06:18:31;;;;;;;6.80;5.50;;;;;;;-145.18;100.00;46670.16;6182057;23;20231;-72
2023/01/02 06:20:58;;;;;;;6.43;4.20;;;;;;;-145.18;100.00;46668.22;6182089;23;20608;-72
2023/01/02 06:23:24;;;;;;;4.73;3.57;;;;;;;-145.18;100.00;46670.16;6182133;23;20231;-72
2023/01/02 06:25:49;;;;;;;5.80;3.53;;;;;;;-145.18;100.00;46668.22;6181805;23;20048;-72
2023/01/02 06:28:14;;;;;;;5.00;3.40;;;;;;;-145.18;100.00;46670.16;6181744;23;20465;-72
2023/01/02 06:30:40;;;;;;;4.17;2.67;;;;;;;-145.18;100.00;46664.31;6182426;23;20087;-72
2023/01/02 06:33:05;;;;;;;4.20;2.73;;;;;;;-145.18;100.00;46672.13;6180351;23;20017;-72
2023/01/02 06:35:30;;;;;;;4.50;2.60;;;;;;;-145.18;100.00;46666.25;6182162;23;20088;-72
2023/01/02 06:37:56;;;;;;;4.23;2.83;;;;;;;-145.18;100.00;46666.25;6181372;23;20005;-72
2023/01/02 06:40:21;;;;;;;5.50;3.70;;;;;;;-145.18;100.00;46666.25;6182297;23;20016;-72
2023/01/02 06:42:46;;;;;;;6.30;3.90;;;;;;;-145.18;100.00;46668.22;6181973;23;20129;-72
2023/01/02 06:45:12;;;;;;;6.30;4.30;;;;;;;-145.18;100.00;46674.06;6180563;23;20064;-72
2023/01/02 06:47:37;;;;;;;5.87;4.10;;;;;;;-145.18;100.00;46660.41;6182099;23;20005;-72
2023/01/02 06:50:03;;;;;;;5.13;3.33;;;;;;;-145.18;100.00;46666.25;6182062;23;20113;-72
2023/01/02 06:52:28;;;;;;;5.63;3.10;;;;;;;-145.18;100.00;46664.31;6182196;23;20096;-72
2023/01/02 06:54:54;;;;;;;7.00;3.97;;;;;;;-145.18;100.00;46670.16;6181705;23;20009;-72
2023/01/02 06:57:20;;;;;;;6.73;4.20;;;;;;;-145.18;100.00;46668.22;6172546;23;20017;-71
2023/01/02 06:59:45;;;;;;;9.00;4.30;;;;;;;-145.18;100.00;46660.41;6181053;23;20081;-71
2023/01/02 07:02:11;;;;;;;7.63;4.40;;;;;;;-145.18;100.00;46668.22;6172428;23;20024;-71
2023/01/02 07:04:37;;;;;;;8.13;4.73;;;;;;;-145.18;100.00;46668.22;6181121;23;20072;-70
2023/01/02 07:07:02;;;;;;;6.67;4.20;;;;;;;-145.18;100.00;46670.16;6181596;23;20251;-70
2023/01/02 07:09:28;;;;;;;9.43;3.70;;;;;;;-145.18;100.00;46664.31;6182410;23;20009;-70
2023/01/02 07:11:54;;;;;;;7.47;3.73;;;;;;;-145.18;100.00;46670.16;6183328;23;20397;-70
2023/01/02 07:14:19;;;;;;;7.40;4.10;;;;;;;-145.18;100.00;46666.25;6181175;23;20012;-70
2023/01/02 07:16:44;;;;;;;6.70;3.87;;;;;;;-145.18;100.00;46666.25;6183330;23;20381;-70
2023/01/02 07:19:10;;;;;;;8.03;3.70;;;;;;;-145.18;100.00;46668.22;6183195;23;20041;-70
2023/01/02 07:21:35;;;;;;;6.93;3.80;;;;;;;-145.18;100.00;46668.22;6181873;23;20082;-70
2023/01/02 07:24:01;;;;;;;6.97;3.17;;;;;;;-145.18;100.00;46670.16;6180975;23;20514;-70
2023/01/02 07:26:26;;;;;;;8.77;3.93;;;;;;;-145.18;100.00;46668.22;6182647;23;20020;-70
2023/01/02 07:28:51;;;;;;;10.20;4.17;;;;;;;-145.18;100.00;46666.25;6183078;23;20136;-69
2023/01/02 07:31:19;;;;;;;7.57;4.23;;;;;;;-145.18;100.00;46672.13;6183052;23;20005;-70
2023/01/02 07:33:46;;;;;;;6.93;2.90;;;;;;;-145.18;100.00;46668.22;6181074;23;20005;-70
2023/01/02 07:36:15;;;;;;;8.17;3.37;;;;;;;-145.18;100.00;46668.22;6180751;23;20273;-70
2023/01/02 07:38:41;;;;;;;6.73;3.47;;;;;;;-145.18;100.00;46664.31;6183214;23;20660;-70
2023/01/02 07:41:15;;;;;;;6.10;3.27;;;;;;;-145.18;100.00;46666.25;6183277;23;20238;-70
2023/01/02 07:43:41;;;;;;;6.80;3.50;;;;;;;-145.18;100.00;46668.22;6183376;23;20012;-70
2023/01/02 07:46:06;;;;;;;4.57;2.20;;;;;;;-145.18;100.00;46670.16;6183197;23;21080;-70
2023/01/02 07:48:31;;;;;;;5.93;2.77;;;;;;;-145.18;100.00;46668.22;6183178;23;20227;-70
2023/01/02 07:51:01;;;;;;;3.27;2.03;;;;;;;-145.18;100.00;46670.16;6182998;23;20371;-70
2023/01/02 07:53:27;;;;;;;3.70;2.23;;;;;;;-145.18;100.00;46668.22;6183328;23;20009;-70
2023/01/02 07:55:56;;;;;;;4.93;2.00;;;;;;;-145.18;100.00;46676.03;6183372;23;20238;-70
2023/01/02 07:58:22;;;;;;;5.23;2.13;;;;;;;-145.18;100.00;46670.16;6181161;23;20017;-70
2023/01/02 08:00:48;;;;;;;4.13;2.17;;;;;;;-145.18;100.00;46672.13;6183276;23;20240;-70
2023/01/02 08:03:13;;;;;;;4.60;2.00;;;;;;;-145.18;100.00;46674.06;6182316;23;20838;-70
2023/01/02 08:05:39;;;;;;;3.87;2.00;;;;;;;-145.18;100.00;46677.97;6183247;23;20001;-70
2023/01/02 08:08:04;;;;;;;4.30;2.47;;;;;;;-145.18;100.00;46676.03;6182655;23;20378;-70
2023/01/02 08:10:30;;;;;;;5.03;2.90;;;;;;;-145.18;100.00;46672.13;6181615;23;20339;-70
2023/01/02 08:12:56;;;;;;;6.10;2.77;;;;;;;-145.18;100.00;46674.06;6182662;23;20009;-70
2023/01/02 08:15:22;;;;;;;5.00;2.20;;;;;;;-145.18;100.00;46672.13;6183471;23;20009;-70
2023/01/02 08:17:47;;;;;;;3.83;2.37;;;;;;;-145.18;100.00;46672.13;6182889;23;20285;-70
2023/01/02 08:20:13;;;;;;;6.87;3.07;;;;;;;-145.18;100.00;46676.03;6182175;23;20758;-70
2023/01/02 08:22:38;;;;;;;4.50;2.60;;;;;;;-145.18;100.00;46676.03;6183173;23;20020;-70
2023/01/02 08:25:04;;;;;;;11.27;3.00;;;;;;;-145.18;100.00;46676.03;6182481;23;20009;-70
2023/01/02 08:27:30;;;;;;;6.20;3.47;;;;;;;-145.18;100.00;46674.06;6181596;23;20012;-70
2023/01/02 08:29:55;;;;;;;4.90;3.00;;;;;;;-145.18;100.00;46676.03;6182689;23;20235;-70
2023/01/02 08:32:20;;;;;;;5.50;3.00;;;;;;;-145.18;100.00;46685.78;6182408;23;20498;-70
2023/01/02 08:34:46;;;;;;;7.80;3.50;;;;;;;-145.18;100.00;46679.94;6182737;23;20009;-70
2023/01/02 08:37:12;;;;;;;6.70;3.13;;;;;;;-145.18;100.00;46676.03;6182712;23;20084;-71
2023/01/02 08:39:37;;;;;;;6.70;3.13;;;;;;;-145.18;100.00;46677.97;6182991;23;20009;-70
2023/01/02 08:42:03;;;;;;;6.57;3.53;;;;;;;-145.18;100.00;46683.84;6182654;23;20381;-70
2023/01/02 08:44:28;;;;;;;10.83;3.90;;;;;;;-145.18;100.00;46683.84;6182153;23;20362;-70
2023/01/02 08:46:54;;;;;;;8.60;5.23;;;;;;;-145.18;100.00;46676.03;6182470;23;20235;-70
2023/01/02 08:49:20;;;;;;;9.63;3.93;;;;;;;-145.18;100.00;46687.75;6182393;23;20029;-70
2023/01/02 08:51:45;;;;;;;8.00;3.30;;;;;;;-145.18;100.00;46683.84;6180696;23;20071;-70
2023/01/02 08:54:11;;;;;;;7.43;2.80;;;;;;;-145.18;100.00;46676.03;6182041;23;20313;-70
2023/01/02 08:56:37;;;;;;;7.37;3.00;;;;;;;-145.18;100.00;46683.84;6182086;23;20009;-70
2023/01/02 08:59:08;;;;;;;9.07;2.50;;;;;;;-145.18;100.00;46681.88;6181873;23;20009;-70
2023/01/02 09:01:34;;;;;;;14.50;5.27;;;;;;;-145.18;100.00;46683.84;6181875;23;20346;-70
2023/01/02 09:04:01;;;;;;;9.17;4.00;;;;;;;-145.18;100.00;46683.84;6181063;23;20648;-71
2023/01/02 09:06:28;;;;;;;6.23;3.37;;;;;;;-145.18;100.00;46679.94;6182856;23;20222;-71
2023/01/02 09:08:56;;;;;;;8.40;3.70;;;;;;;-145.18;100.00;46683.84;6181702;23;20239;-71
2023/01/02 09:11:28;;;;;;;3.80;1.80;;;;;;;-145.18;100.00;46693.59;6181898;23;20227;-71
2023/01/02 09:13:54;;;;;;;6.57;2.10;;;;;;;-145.18;100.00;46676.03;6181212;23;20229;-71
2023/01/02 09:16:21;;;;;;;7.73;1.87;;;;;;;-145.18;100.00;46681.88;6182187;23;20224;-72
2023/01/02 09:18:46;;;;;;;5.40;2.70;;;;;;;-145.18;100.00;46683.84;6181656;23;20321;-71
2023/01/02 09:21:12;;;;;;;5.80;1.87;;;;;;;-145.18;100.00;46687.75;6181215;23;20239;-71
2023/01/02 09:23:37;;;;;;;6.87;1.90;;;;;;;-145.18;100.00;46683.84;6181536;23;20430;-71
2023/01/02 09:26:05;;;;;;;2.87;1.37;;;;;;;-145.18;100.00;46691.66;6180572;23;20013;-71
2023/01/02 09:28:32;;;;;;;8.07;1.30;;;;;;;-145.18;100.00;46695.56;6181854;23;20005;-71
2023/01/02 09:30:58;;;;;;;7.10;1.43;;;;;;;-145.18;100.00;46681.88;6182328;23;20705;-71
2023/01/02 09:33:23;;;;;;;8.73;1.10;;;;;;;-145.18;100.00;46691.66;6182343;23;20285;-71
2023/01/02 09:35:49;;;;;;;8.00;1.33;;;;;;;-145.18;100.00;46695.56;6182346;23;20045;-71
2023/01/02 09:38:15;;;;;;;7.77;1.87;;;;;;;-145.18;100.00;46685.78;6181743;23;20111;-72
2023/01/02 09:40:46;;;;;;;20.87;2.87;;;;;;;-145.18;100.00;46697.50;6179982;23;20031;-71
2023/01/02 09:43:13;;;;;;;6.37;1.83;;;;;;;-145.18;100.00;46693.59;6180643;23;20009;-71
2023/01/02 09:45:42;;;;;;;12.40;1.83;;;;;;;-145.18;100.00;46695.56;6179100;23;20238;-71
2023/01/02 09:48:15;;;;;;;10.60;1.30;;;;;;;-145.18;100.00;46689.69;6180688;23;20266;-71
2023/01/02 09:50:42;;;;;;;13.40;1.83;;;;;;;-145.18;100.00;46699.47;6181158;23;20321;-71
2023/01/02 09:53:09;;;;;;;9.50;1.00;;;;;;;-145.18;100.00;46691.66;6180603;23;20295;-71
2023/01/02 09:55:45;;;;;;;8.43;1.20;;;;;;;-145.18;100.00;46697.50;6182309;23;20235;-72
2023/01/02 09:58:31;;;;;;;10.80;1.20;;;;;;;-145.18;100.00;46695.56;6181885;23;20219;-72
2023/01/02 10:00:58;;;;;;;9.38;1.10;;;;;;;-145.18;100.00;46697.50;6182118;23;20277;-74
2023/01/02 10:03:46;;;;;;;6.30;0.93;;;;;;;-145.18;100.00;46697.50;6181843;23;20013;-72
2023/01/02 10:06:23;;;;;;;5.63;1.17;;;;;;;-145.18;100.00;46695.56;6181195;23;20270;-72
2023/01/02 10:09:22;;;;;;;4.60;0.93;;;;;;;-145.18;100.00;46695.56;6181998;23;20282;-72
2023/01/02 10:11:50;;;;;;;9.53;1.53;;;;;;;-145.18;100.00;46693.59;6182103;23;20258;-72
2023/01/02 10:14:51;;;;;;;6.17;1.30;;;;;;;-145.18;100.00;46693.59;6181785;23;20238;-72
2023/01/02 10:17:18;;;;;;;4.60;1.40;;;;;;;-145.18;100.00;46691.66;6182417;23;20715;-72
2023/01/02 10:19:59;;;;;;;9.30;1.57;;;;;;;-145.18;100.00;46691.66;6181946;23;20322;-72
2023/01/02 10:22:48;;;;;;;6.17;1.13;;;;;;;-145.18;100.00;46691.66;6182273;23;20249;-72
2023/01/02 10:25:54;;;;;;;7.87;1.40;;;;;;;-145.18;100.00;46693.59;6164073;23;20731;-72
2023/01/02 10:28:41;;;;;;;10.17;1.67;;;;;;;-145.18;100.00;46691.66;6177731;23;20317;-71
2023/01/02 10:31:14;;;;;;;10.00;1.40;;;;;;;-145.18;100.00;46693.59;6182225;23;20322;-72
2023/01/02 10:33:58;;;;;;;6.07;1.30;;;;;;;-145.18;100.00;46695.56;6182118;23;20269;-72
2023/01/02 10:36:25;;;;;;;6.80;1.70;;;;;;;-145.18;100.00;46697.50;6182455;23;20238;-72
2023/01/02 10:38:52;;;;;;;9.40;2.40;;;;;;;-145.18;100.00;46695.56;6182041;23;20227;-72
2023/01/02 10:41:17;;;;;;;6.73;1.80;;;;;;;-145.18;100.00;46693.59;6181892;23;20243;-72
2023/01/02 10:43:50;;;;;;;8.67;2.87;;;;;;;-145.18;100.00;46699.47;6182455;23;20366;-72
2023/01/02 10:46:16;;;;;;;9.80;2.50;;;;;;;-145.18;100.00;46697.50;6183906;23;20009;-72
2023/01/02 10:48:42;;;;;;;9.07;2.40;;;;;;;-145.18;100.00;46699.47;6184125;23;20563;-72
2023/01/02 10:51:13;;;;;;;11.30;2.40;;;;;;;-145.18;100.00;46699.47;6183952;23;20020;-72
2023/01/02 10:53:38;;;;;;;11.63;3.37;;;;;;;-145.18;100.00;46701.41;6183803;23;20258;-72
2023/01/02 10:56:17;;;;;;;6.87;2.73;;;;;;;-145.18;100.00;46699.47;6184038;23;20242;-72
2023/01/02 10:58:46;;;;;;;12.10;3.83;;;;;;;-145.18;100.00;46701.41;6183981;23;20488;-72
2023/01/02 11:01:17;;;;;;;11.10;3.43;;;;;;;-145.18;100.00;46701.41;6183752;23;20613;-72
2023/01/02 11:03:43;;;;;;;10.87;3.13;;;;;;;-145.18;100.00;46697.50;6183473;23;20250;-72
2023/01/02 11:06:24;;;;;;;9.77;3.13;;;;;;;-145.18;100.00;46697.50;6183874;23;20393;-72
2023/01/02 11:09:00;;;;;;;12.27;3.87;;;;;;;-145.18;100.00;46693.59;6183767;23;20005;-72
2023/01/02 11:11:27;;;;;;;11.57;3.53;;;;;;;-145.18;100.00;46697.50;6184014;23;20008;-72
2023/01/02 11:13:54;;;;;;;9.57;3.27;;;;;;;-145.18;100.00;46701.41;6183511;23;20246;-72
2023/01/02 11:16:23;;;;;;;9.90;3.80;;;;;;;-145.18;100.00;46695.56;6183659;23;20310;-72
2023/01/02 11:19:00;;;;;;;16.37;5.00;;;;;;;-145.18;100.00;46697.50;6183403;23;20756;-72
2023/01/02 11:21:31;;;;;;;11.53;5.03;;;;;;;-145.18;100.00;46691.66;6183821;23;20229;-72